Time;durP1;ratioP1;P1;durP2;ratioP2;P2;SDS_P1;SDS_P2;PMS_P1;PMS_P2;Temp;Humidity;BMP_temperature;BMP_pressure;BME280_temperature;BME280_humidity;BME280_pressure;Samples;Min_cycle;Max_cycle;Signal;HPM_P1;HPM_P2
2021/11/26 00:02:19;;;;;;;8.90;6.00;;;;;;;0.72;74.56;98229.42;102252;1313;74814;-23
2021/11/26 00:04:48;;;;;;;7.80;5.10;;;;;;;0.51;75.17;98235.33;102021;1313;76749;-23
2021/11/26 00:07:20;;;;;;;8.50;5.50;;;;;;;0.35;75.75;98235.12;102215;1314;74582;-23
2021/11/26 00:09:50;;;;;;;9.80;5.70;;;;;;;0.35;76.14;98238.53;101942;1313;62205;-23
2021/11/26 00:12:19;;;;;;;10.30;7.30;;;;;;;0.78;74.85;98238.98;102197;1313;61387;-23
2021/11/26 00:17:22;;;;;;;10.50;6.60;;;;;;;0.84;74.12;98235.08;101721;1313;75776;-23
2021/11/26 00:19:51;;;;;;;12.10;7.70;;;;;;;0.62;74.50;98231.80;101918;1314;74570;-23
2021/11/26 00:22:20;;;;;;;8.00;5.30;;;;;;;0.43;75.20;98224.42;102136;1314;61264;-23
2021/11/26 00:24:49;;;;;;;9.10;6.40;;;;;;;0.63;75.21;98226.83;102188;1314;62097;-23
2021/11/26 00:27:18;;;;;;;10.60;7.20;;;;;;;0.85;74.44;98223.91;101721;1314;73924;-23
2021/11/26 00:29:46;;;;;;;8.70;5.30;;;;;;;0.80;74.04;98218.20;101744;1314;74893;-23
2021/11/26 00:32:15;;;;;;;12.30;6.80;;;;;;;0.61;74.75;98213.94;101940;1314;74579;-24
2021/11/26 00:34:44;;;;;;;8.40;5.40;;;;;;;0.38;75.45;98213.08;101860;1317;61144;-23
2021/11/26 00:37:12;;;;;;;12.30;8.30;;;;;;;0.60;75.51;98212.10;101884;1314;61056;-23
2021/11/26 00:39:43;;;;;;;12.30;8.10;;;;;;;0.88;74.49;98207.52;101905;1317;74412;-23
2021/11/26 00:42:12;;;;;;;13.90;7.20;;;;;;;0.76;74.61;98199.96;101845;1316;75191;-23
2021/11/26 00:44:41;;;;;;;18.30;10.10;;;;;;;0.56;75.10;98202.23;101880;1317;74183;-24
2021/11/26 00:47:09;;;;;;;12.50;7.30;;;;;;;0.41;75.75;98200.48;101842;1317;62195;-23
2021/11/26 00:49:39;;;;;;;14.10;8.70;;;;;;;0.82;75.03;98193.98;101694;1314;61190;-23
2021/11/26 00:52:07;;;;;;;14.70;7.80;;;;;;;1.06;73.67;98194.41;101569;1315;75777;-23
2021/11/26 00:54:35;;;;;;;10.50;6.60;;;;;;;1.01;73.50;98191.93;101900;1315;75275;-24
2021/11/26 00:57:07;;;;;;;14.10;8.00;;;;;;;0.72;74.51;98187.52;102053;1317;74383;-23
2021/11/26 00:59:37;;;;;;;17.40;7.40;;;;;;;0.47;75.49;98188.57;101719;1315;61182;-23
2021/11/26 01:02:06;;;;;;;8.20;6.10;;;;;;;0.66;75.48;98185.50;102057;1314;61175;-24
2021/11/26 01:04:35;;;;;;;10.50;7.10;;;;;;;0.96;74.22;98179.90;101751;1317;74153;-24
2021/11/26 01:07:04;;;;;;;11.20;8.30;;;;;;;0.91;74.25;98178.83;102276;1316;75173;-24
2021/11/26 01:09:32;;;;;;;11.60;6.00;;;;;;;0.74;74.44;98183.03;102318;1315;73000;-24
2021/11/26 01:12:01;;;;;;;11.50;7.60;;;;;;;0.54;75.47;98182.73;102257;1314;61208;-24
2021/11/26 01:14:30;;;;;;;9.80;6.90;;;;;;;0.79;74.89;98177.43;102047;1316;61129;-24
2021/11/26 01:16:58;;;;;;;11.80;8.30;;;;;;;1.07;73.85;98173.86;101727;1317;74732;-24
2021/11/26 01:19:46;;;;;;;7.20;5.10;;;;;;;0.94;74.06;98171.80;101961;1314;77195;-24
2021/11/26 01:22:15;;;;;;;14.30;9.10;;;;;;;0.75;74.68;98170.33;102052;1319;73615;-25
2021/11/26 01:24:44;;;;;;;11.30;5.80;;;;;;;0.53;75.45;98166.71;101981;1313;61252;-24
2021/11/26 01:27:13;;;;;;;7.30;6.00;;;;;;;0.80;75.15;98168.46;102108;1316;61256;-24
2021/11/26 01:29:42;;;;;;;14.30;8.40;;;;;;;1.12;73.64;98160.55;102174;1313;75628;-24
2021/11/26 01:32:10;;;;;;;12.00;7.90;;;;;;;0.91;73.93;98160.40;102286;1319;75977;-24
2021/11/26 01:34:39;;;;;;;10.90;7.40;;;;;;;0.75;74.56;98159.70;102303;1314;74767;-24
2021/11/26 01:37:08;;;;;;;13.30;6.90;;;;;;;0.56;75.38;98157.33;102150;1314;61292;-24
2021/11/26 01:39:37;;;;;;;8.50;5.50;;;;;;;0.69;75.39;98156.77;102293;1317;61239;-24
2021/11/26 01:42:06;;;;;;;9.10;5.70;;;;;;;1.06;73.97;98155.28;102146;1317;75529;-24
2021/11/26 01:44:36;;;;;;;6.70;4.60;;;;;;;0.93;73.96;98159.89;101875;1318;76002;-24
2021/11/26 01:47:04;;;;;;;14.10;7.80;;;;;;;0.80;74.40;98156.55;102020;1314;73461;-24
2021/11/26 01:49:36;;;;;;;5.70;3.80;;;;;;;0.57;75.27;98155.41;102166;1314;61298;-24
2021/11/26 01:52:05;;;;;;;6.90;5.10;;;;;;;0.61;75.67;98152.77;102209;1313;61114;-24
2021/11/26 01:54:33;;;;;;;6.20;4.80;;;;;;;1.09;73.84;98153.19;102143;1314;74970;-24
2021/11/26 01:57:04;;;;;;;9.80;7.00;;;;;;;1.24;73.32;98151.33;102082;1314;76479;-24
2021/11/26 01:59:32;;;;;;;7.40;4.70;;;;;;;1.02;73.46;98152.06;101755;1313;74458;-24
2021/11/26 02:02:01;;;;;;;10.90;6.60;;;;;;;0.82;74.44;98152.52;102129;1313;61701;-24
2021/11/26 02:04:29;;;;;;;14.80;8.20;;;;;;;0.69;74.64;98137.64;102096;1314;61111;-24
2021/11/26 02:06:58;;;;;;;12.50;7.00;;;;;;;0.80;75.01;98140.46;102108;1312;75592;-24
2021/11/26 02:09:46;;;;;;;10.40;6.20;;;;;;;1.01;74.03;98133.14;101935;1314;76196;-24
2021/11/26 02:12:14;;;;;;;7.70;5.40;;;;;;;0.95;73.98;98127.81;102127;1318;72252;-24
2021/11/26 02:14:43;;;;;;;14.30;7.80;;;;;;;0.75;74.81;98127.25;102300;1312;61109;-24
2021/11/26 02:17:13;;;;;;;11.20;7.20;;;;;;;0.67;74.89;98129.92;101789;1316;365733;-24
2021/11/26 02:19:44;;;;;;;13.30;8.70;;;;;;;0.76;74.89;98135.55;101958;1315;75445;-24
2021/11/26 02:22:13;;;;;;;7.30;4.70;;;;;;;1.06;73.60;98135.05;102253;1314;76250;-24
2021/11/26 02:24:41;;;;;;;9.70;6.60;;;;;;;1.19;73.17;98126.95;102257;1313;74493;-25
2021/11/26 02:27:10;;;;;;;18.50;12.40;;;;;;;0.99;73.71;98121.48;102271;1313;61282;-24
2021/11/26 02:29:39;;;;;;;8.00;5.50;;;;;;;0.78;74.05;98124.70;102303;1316;61216;-24
2021/11/26 02:32:07;;;;;;;10.20;6.60;;;;;;;0.52;75.23;98119.61;102012;1312;75973;-24
2021/11/26 02:34:36;;;;;;;14.60;8.50;;;;;;;0.74;75.22;98124.41;102003;1313;76274;-24
2021/11/26 02:37:04;;;;;;;7.40;5.00;;;;;;;1.03;73.99;98121.24;101909;1314;73958;-24
2021/11/26 02:39:33;;;;;;;13.20;9.10;;;;;;;0.98;73.69;98109.71;102152;1312;61237;-24
2021/11/26 02:42:02;;;;;;;7.00;5.20;;;;;;;0.77;74.27;98117.55;102124;1313;61483;-24
2021/11/26 02:44:30;;;;;;;9.20;5.30;;;;;;;0.65;74.92;98118.21;102106;1312;74579;-24
2021/11/26 02:46:59;;;;;;;6.70;5.20;;;;;;;0.76;74.73;98122.56;102103;1313;76086;-24
2021/11/26 02:49:27;;;;;;;7.60;4.80;;;;;;;1.09;74.01;98124.48;102089;1313;74849;-24
2021/11/26 02:51:55;;;;;;;8.10;6.10;;;;;;;1.17;73.12;98120.07;102271;1314;61256;-24
2021/11/26 02:54:24;;;;;;;8.10;5.30;;;;;;;0.95;73.78;98121.31;102212;1314;61235;-24
2021/11/26 02:56:53;;;;;;;8.80;5.80;;;;;;;0.77;74.44;98124.92;102128;1314;75625;-24
2021/11/26 02:59:21;;;;;;;11.80;6.60;;;;;;;0.62;75.02;98122.51;101939;1313;76048;-24
2021/11/26 03:01:50;;;;;;;8.60;4.80;;;;;;;1.00;74.39;98124.33;101890;1314;73407;-24
2021/11/26 03:04:18;;;;;;;11.70;7.20;;;;;;;1.27;72.89;98121.39;102038;1312;61196;-25
2021/11/26 03:06:47;;;;;;;12.80;5.40;;;;;;;1.19;72.89;98120.86;102209;1313;61009;-24
2021/11/26 03:09:15;;;;;;;8.70;6.10;;;;;;;0.99;73.44;98113.77;102159;1316;75606;-24
2021/11/26 03:11:44;;;;;;;8.50;4.90;;;;;;;0.70;74.56;98113.31;102064;1319;76070;-24
2021/11/26 03:14:12;;;;;;;8.80;5.20;;;;;;;0.64;75.11;98114.70;102124;1312;74356;-24
2021/11/26 03:16:41;;;;;;;8.10;4.70;;;;;;;1.02;74.02;98118.55;102064;1316;61703;-24
2021/11/26 03:19:10;;;;;;;12.60;8.20;;;;;;;1.16;73.24;98120.30;101960;1314;61175;-24
2021/11/26 03:21:38;;;;;;;14.40;7.10;;;;;;;0.99;73.77;98121.14;102089;1313;75564;-24
2021/11/26 03:24:07;;;;;;;7.30;4.50;;;;;;;0.88;74.19;98118.11;102071;1314;75318;-24
2021/11/26 03:26:36;;;;;;;11.30;7.30;;;;;;;0.65;74.85;98117.90;102146;1313;74233;-24
2021/11/26 03:29:04;;;;;;;14.10;8.30;;;;;;;0.73;74.93;98121.55;101802;1314;61207;-24
2021/11/26 03:31:33;;;;;;;10.00;5.90;;;;;;;1.14;73.51;98108.46;101923;1312;61182;-24
2021/11/26 03:34:01;;;;;;;13.60;8.00;;;;;;;1.21;72.84;98107.39;101937;1313;74872;-24
2021/11/26 03:36:30;;;;;;;13.30;7.30;;;;;;;1.02;73.35;98103.85;102112;1311;73702;-24
2021/11/26 03:38:59;;;;;;;7.70;4.20;;;;;;;0.81;74.27;98112.55;102142;1315;74555;-24
2021/11/26 03:41:28;;;;;;;23.90;4.60;;;;;;;0.60;75.10;98107.02;102174;1312;61162;-23
2021/11/26 03:43:56;;;;;;;10.30;6.40;;;;;;;0.86;74.73;98102.69;102009;1312;61822;-24
2021/11/26 03:46:24;;;;;;;5.20;3.30;;;;;;;1.14;73.40;98096.52;102019;1313;73750;-24
2021/11/26 03:48:54;;;;;;;6.00;3.80;;;;;;;1.16;73.26;98094.67;102043;1313;76044;-24
2021/11/26 03:51:22;;;;;;;7.80;5.00;;;;;;;0.95;73.80;98085.41;101991;1312;74267;-23
2021/11/26 03:53:51;;;;;;;10.50;6.50;;;;;;;0.80;74.09;98079.30;102102;1313;61190;-23
2021/11/26 03:56:19;;;;;;;10.10;5.50;;;;;;;0.72;74.98;98080.94;102144;1312;61672;-23
2021/11/26 03:58:49;;;;;;;6.50;4.60;;;;;;;1.22;73.22;98069.56;101920;1313;74174;-24
2021/11/26 04:01:17;;;;;;;6.90;5.30;;;;;;;1.38;72.43;98074.58;102005;1312;74517;-24
2021/11/26 04:03:47;;;;;;;7.90;4.70;;;;;;;1.30;72.49;98080.35;102007;1313;74476;-24
2021/11/26 04:06:16;;;;;;;12.00;6.40;;;;;;;1.03;73.14;98095.57;102102;1312;61205;-23
2021/11/26 04:08:45;;;;;;;9.80;6.20;;;;;;;0.84;73.85;98090.36;101806;1313;61162;-23
2021/11/26 04:11:33;;;;;;;12.70;6.30;;;;;;;0.90;74.25;98091.55;102036;1318;76860;-24
2021/11/26 04:14:01;;;;;;;9.20;5.10;;;;;;;1.38;73.12;98090.84;102076;1312;74284;-24
2021/11/26 04:16:32;;;;;;;7.50;5.10;;;;;;;1.46;71.98;98085.23;102056;1312;74584;-23
2021/11/26 04:19:05;;;;;;;8.00;4.60;;;;;;;1.27;72.48;98078.85;101741;1315;61203;-24
2021/11/26 04:21:34;;;;;;;7.20;4.50;;;;;;;1.10;72.89;98080.67;101917;1314;61274;-24
2021/11/26 04:24:04;;;;;;;6.50;3.90;;;;;;;0.78;73.83;98082.97;102157;1312;74852;-24
2021/11/26 04:26:33;;;;;;;9.70;5.30;;;;;;;0.74;74.75;98085.45;102138;1313;75213;-23
2021/11/26 04:29:02;;;;;;;10.80;7.30;;;;;;;1.25;73.32;98082.52;101999;1313;74462;-23
2021/11/26 04:31:30;;;;;;;11.80;8.10;;;;;;;1.32;72.32;98078.05;102321;1312;62141;-23
2021/11/26 04:33:59;;;;;;;7.50;5.10;;;;;;;1.21;72.40;98077.14;102182;1313;61219;-24
2021/11/26 04:36:28;;;;;;;10.30;6.60;;;;;;;0.95;73.19;98086.29;102161;1312;75345;-24
2021/11/26 04:38:57;;;;;;;7.70;5.60;;;;;;;0.74;74.07;98088.85;102179;1314;75144;-23
2021/11/26 04:41:25;;;;;;;7.80;4.00;;;;;;;0.73;74.75;98081.55;101879;1313;74220;-24
2021/11/26 04:43:54;;;;;;;7.90;5.20;;;;;;;1.27;73.13;98074.20;101950;1318;61066;-23
2021/11/26 04:46:22;;;;;;;6.20;4.20;;;;;;;1.51;71.80;98077.09;101983;1316;61166;-24
2021/11/26 04:48:50;;;;;;;10.40;6.60;;;;;;;1.39;71.97;98080.36;102067;1312;75600;-24
2021/11/26 04:51:20;;;;;;;9.40;6.20;;;;;;;1.16;72.68;98076.73;102079;1313;76138;-23
2021/11/26 04:53:48;;;;;;;12.50;7.70;;;;;;;0.92;73.56;98070.77;102081;1312;74315;-24
2021/11/26 04:56:16;;;;;;;10.90;5.60;;;;;;;0.68;74.33;98079.61;102265;1313;62064;-23
2021/11/26 04:58:46;;;;;;;9.80;5.10;;;;;;;0.92;73.90;98078.08;102269;1312;61836;-23
2021/11/26 05:01:14;;;;;;;14.50;7.00;;;;;;;1.05;73.16;98077.19;102189;1313;75421;-24
2021/11/26 05:03:46;;;;;;;6.10;4.10;;;;;;;1.03;73.27;98065.35;102116;1312;76240;-23
2021/11/26 05:06:19;;;;;;;12.60;5.70;;;;;;;0.88;73.70;98065.20;101812;1314;74319;-23
2021/11/26 05:08:47;;;;;;;5.40;4.00;;;;;;;0.68;74.16;98061.87;101765;1313;61157;-23
2021/11/26 05:11:16;;;;;;;8.30;5.50;;;;;;;0.72;74.57;98069.50;101978;1316;61176;-23
2021/11/26 05:13:44;;;;;;;6.90;5.10;;;;;;;1.09;73.27;98070.47;102096;1312;75554;-24
2021/11/26 05:16:13;;;;;;;7.80;4.60;;;;;;;1.18;72.61;98074.54;101952;1313;76065;-23
2021/11/26 05:18:43;;;;;;;11.00;5.50;;;;;;;0.98;72.90;98078.29;102057;1312;74492;-23
2021/11/26 05:21:12;;;;;;;12.70;6.30;;;;;;;0.81;73.95;98075.64;101783;1313;61091;-23
2021/11/26 05:23:40;;;;;;;10.00;4.90;;;;;;;0.64;74.05;98073.67;102137;1313;61230;-23
2021/11/26 05:26:09;;;;;;;11.00;6.60;;;;;;;0.52;74.72;98077.44;102128;1313;75552;-24
2021/11/26 05:28:38;;;;;;;8.40;5.10;;;;;;;0.95;74.17;98072.44;102314;1312;75083;-24
2021/11/26 05:31:07;;;;;;;11.10;6.50;;;;;;;1.32;72.75;98070.99;101973;1314;72763;-24
2021/11/26 05:33:36;;;;;;;7.40;5.10;;;;;;;1.31;72.47;98071.22;101816;1317;61278;-23
2021/11/26 05:36:05;;;;;;;11.90;7.20;;;;;;;1.03;73.08;98063.61;102261;1316;61131;-23
2021/11/26 05:38:33;;;;;;;7.20;5.10;;;;;;;0.85;73.53;98061.42;102293;1312;75598;-24
2021/11/26 05:41:02;;;;;;;9.50;6.00;;;;;;;0.63;74.38;98056.13;102301;1313;76066;-23
2021/11/26 05:43:31;;;;;;;11.40;5.60;;;;;;;0.81;74.65;98060.45;102173;1317;72939;-25
2021/11/26 05:46:00;;;;;;;6.20;4.80;;;;;;;1.24;72.76;98073.55;102305;1316;61531;-24
2021/11/26 05:48:28;;;;;;;7.90;4.80;;;;;;;1.13;72.54;98076.37;102282;1313;61247;-24
2021/11/26 05:50:57;;;;;;;9.70;6.40;;;;;;;0.99;72.63;98073.58;102276;1315;75717;-25
2021/11/26 05:53:25;;;;;;;10.30;6.40;;;;;;;0.87;73.29;98067.62;102239;1316;73828;-24
2021/11/26 05:55:59;;;;;;;10.30;4.50;;;;;;;0.65;73.87;98065.27;102143;1314;74171;-24
2021/11/26 05:58:27;;;;;;;6.80;4.80;;;;;;;0.75;74.41;98073.75;102005;1313;61736;-24
2021/11/26 06:00:56;;;;;;;9.20;5.40;;;;;;;1.03;73.37;98079.54;102016;1312;61339;-24
2021/11/26 06:03:24;;;;;;;3.80;2.80;;;;;;;1.20;72.60;98074.98;102118;1312;75814;-24
2021/11/26 06:05:53;;;;;;;8.80;5.70;;;;;;;1.05;72.92;98077.49;102072;1317;75619;-24
2021/11/26 06:08:22;;;;;;;12.20;5.40;;;;;;;0.85;73.65;98080.70;102283;1313;74198;-24
2021/11/26 06:10:50;;;;;;;9.80;5.30;;;;;;;0.63;74.07;98075.80;102042;1317;61088;-24
2021/11/26 06:13:39;;;;;;;10.20;6.20;;;;;;;0.79;74.54;98083.59;102059;1314;62300;-24
2021/11/26 06:16:07;;;;;;;5.20;3.80;;;;;;;1.26;72.73;98078.19;101814;1313;74765;-24
2021/11/26 06:18:43;;;;;;;6.80;4.70;;;;;;;1.28;72.32;98068.80;101987;1312;75985;-24
2021/11/26 06:21:12;;;;;;;7.40;4.90;;;;;;;1.18;72.55;98069.28;101874;1312;74505;-24
2021/11/26 06:23:41;;;;;;;7.60;4.10;;;;;;;1.05;72.94;98070.00;101810;1314;61037;-24
2021/11/26 06:26:10;;;;;;;8.50;5.30;;;;;;;0.83;73.51;98070.73;102287;1314;61256;-24
2021/11/26 06:28:38;;;;;;;9.10;5.50;;;;;;;0.68;74.22;98066.77;102232;1314;74599;-24
2021/11/26 06:31:07;;;;;;;10.50;5.90;;;;;;;1.13;73.87;98068.53;102294;1313;75954;-24
2021/11/26 06:33:35;;;;;;;7.40;4.60;;;;;;;1.52;72.29;98073.23;102257;1312;73902;-24
2021/11/26 06:36:04;;;;;;;7.40;4.50;;;;;;;1.57;71.81;98073.30;101999;1317;61139;-24
2021/11/26 06:38:32;;;;;;;9.40;4.80;;;;;;;1.41;72.14;98075.09;102300;1312;61847;-23
2021/11/26 06:41:01;;;;;;;12.90;6.00;;;;;;;1.19;72.69;98079.81;102305;1312;75375;-24
2021/11/26 06:43:30;;;;;;;10.20;5.20;;;;;;;0.97;73.31;98077.99;102071;1312;76067;-24
2021/11/26 06:45:59;;;;;;;8.90;6.20;;;;;;;1.04;73.71;98066.48;102045;1313;74478;-23
2021/11/26 06:48:28;;;;;;;10.10;4.80;;;;;;;1.60;72.36;98067.45;101998;1313;61224;-23
2021/11/26 06:50:56;;;;;;;5.40;3.70;;;;;;;1.77;71.44;98070.20;102199;1312;61284;-24
2021/11/26 06:53:25;;;;;;;9.10;4.50;;;;;;;1.69;71.45;98076.54;101974;1313;73357;-24
2021/11/26 06:55:54;;;;;;;8.00;4.90;;;;;;;1.48;71.85;98075.39;102011;1312;75191;-23
2021/11/26 06:58:23;;;;;;;6.10;4.70;;;;;;;1.27;72.47;98077.47;102040;1313;74178;-24
2021/11/26 07:00:51;;;;;;;6.30;4.40;;;;;;;1.03;73.40;98073.86;101941;1313;61304;-23
2021/11/26 07:03:20;;;;;;;11.20;6.50;;;;;;;1.29;72.95;98069.83;101878;1313;61165;-23
2021/11/26 07:05:48;;;;;;;9.10;5.00;;;;;;;1.72;71.47;98078.23;102030;1312;74637;-23
2021/11/26 07:08:36;;;;;;;8.10;4.50;;;;;;;1.91;71.11;98070.23;101971;1312;75336;-24
2021/11/26 07:11:05;;;;;;;8.60;4.80;;;;;;;1.81;71.30;98071.83;101919;1318;74200;-23
2021/11/26 07:13:34;;;;;;;6.30;4.20;;;;;;;1.67;71.75;98067.73;102082;1312;61211;-23
2021/11/26 07:16:03;;;;;;;8.90;5.00;;;;;;;1.51;72.11;98070.39;101868;1313;61202;-24
2021/11/26 07:18:31;;;;;;;9.10;5.60;;;;;;;1.36;72.52;98081.73;101923;1313;75671;-24
2021/11/26 07:21:01;;;;;;;7.10;4.20;;;;;;;1.79;71.77;98079.13;102164;1312;75120;-24
2021/11/26 07:23:29;;;;;;;6.70;4.50;;;;;;;2.04;70.66;98072.84;101879;1314;74943;-24
2021/11/26 07:26:13;;;;;;;;;;;;;;;2.06;70.61;98071.86;102074;1314;61144;-23
2021/11/26 07:28:41;;;;;;;6.70;4.00;;;;;;;1.88;70.67;98073.97;101789;1314;61218;-24
2021/11/26 07:31:10;;;;;;;8.50;5.50;;;;;;;1.61;71.48;98075.63;102162;1314;75370;-24
2021/11/26 07:33:39;;;;;;;5.80;3.40;;;;;;;1.49;72.24;98070.54;102317;1313;76109;-24
2021/11/26 07:36:07;;;;;;;9.00;5.20;;;;;;;1.57;72.47;98068.98;102272;1312;74230;-23
2021/11/26 07:38:36;;;;;;;9.00;5.70;;;;;;;2.21;71.34;98064.80;101887;1315;61148;-24
2021/11/26 07:41:04;;;;;;;4.20;3.40;;;;;;;2.53;69.80;98065.20;102321;1313;61377;-23
2021/11/26 07:43:33;;;;;;;7.50;5.10;;;;;;;2.40;69.33;98068.22;102288;1312;74854;-24
2021/11/26 07:46:02;;;;;;;5.80;3.90;;;;;;;2.29;69.75;98072.51;102253;1313;75993;-24
2021/11/26 07:48:31;;;;;;;8.10;5.20;;;;;;;2.18;70.07;98075.58;101947;1314;72732;-24
2021/11/26 07:50:59;;;;;;;11.00;6.40;;;;;;;1.93;70.67;98078.14;102089;1312;61471;-24
2021/11/26 07:53:29;;;;;;;7.20;4.80;;;;;;;1.85;71.17;98068.69;102045;1312;61506;-23
2021/11/26 07:56:02;;;;;;;7.80;4.80;;;;;;;1.91;71.07;98064.39;102283;1312;75594;-24
2021/11/26 07:58:30;;;;;;;9.20;6.30;;;;;;;2.38;69.71;98072.44;102136;1313;76110;-24
2021/11/26 08:00:59;;;;;;;4.00;2.60;;;;;;;2.47;69.01;98073.77;101859;1312;73632;-24
2021/11/26 08:03:28;;;;;;;10.10;6.00;;;;;;;2.38;69.21;98072.65;102275;1312;61353;-23
2021/11/26 08:06:05;;;;;;;7.30;5.40;;;;;;;2.18;69.82;98071.85;101798;1315;61293;-23
2021/11/26 08:08:33;;;;;;;7.70;4.00;;;;;;;2.00;70.30;98073.09;101744;1316;75705;-24
2021/11/26 08:11:07;;;;;;;10.50;6.50;;;;;;;1.94;70.63;98071.27;102128;1313;76140;-23
2021/11/26 08:13:36;;;;;;;7.00;4.60;;;;;;;1.88;71.32;98069.05;102079;1312;73658;-23
2021/11/26 08:16:08;;;;;;;5.40;3.30;;;;;;;2.08;71.34;98065.23;102064;1312;61964;-23
2021/11/26 08:18:44;;;;;;;6.90;4.40;;;;;;;2.86;69.29;98059.48;102075;1313;61268;-22
2021/11/26 08:21:13;;;;;;;10.70;6.20;;;;;;;3.22;67.95;98045.59;102129;1313;74803;-23
2021/11/26 08:23:41;;;;;;;8.90;5.40;;;;;;;3.36;67.34;98038.32;102016;1313;76064;-23
2021/11/26 08:26:12;;;;;;;12.10;6.80;;;;;;;3.52;66.93;98036.20;102015;1312;74536;-23
2021/11/26 08:28:41;;;;;;;10.80;6.90;;;;;;;3.63;66.50;98035.81;102278;1314;61180;-23
2021/11/26 08:31:10;;;;;;;18.30;6.70;;;;;;;3.67;66.14;98036.92;102144;1314;61192;-22
2021/11/26 08:33:39;;;;;;;11.80;7.20;;;;;;;3.70;65.97;98028.63;102117;1312;76519;-22
2021/11/26 08:36:08;;;;;;;11.00;7.00;;;;;;;3.65;65.64;98021.11;101923;1316;75402;-22
2021/11/26 08:38:36;;;;;;;10.50;6.20;;;;;;;3.58;65.88;98017.08;101866;1315;73515;-23
2021/11/26 08:41:05;;;;;;;7.10;5.20;;;;;;;3.69;65.91;98010.48;102324;1320;61082;-23
2021/11/26 08:43:34;;;;;;;10.70;6.40;;;;;;;3.87;65.49;98003.77;101835;1314;61127;-23
2021/11/26 08:46:03;;;;;;;9.50;6.20;;;;;;;4.01;64.94;97996.95;101679;1314;74913;-23
2021/11/26 08:48:31;;;;;;;14.40;7.30;;;;;;;4.17;64.83;97997.69;102043;1313;76068;-22
2021/11/26 08:51:12;;;;;;;11.90;7.00;;;;;;;4.31;63.98;97994.14;101705;1316;74420;-22
2021/11/26 08:53:45;;;;;;;12.00;7.30;;;;;;;4.33;63.57;97995.71;102107;1313;61214;-22
2021/11/26 08:56:15;;;;;;;10.60;6.40;;;;;;;4.31;63.73;97988.63;101911;1314;61812;-22
2021/11/26 08:58:46;;;;;;;13.40;8.20;;;;;;;4.36;63.44;97985.52;102108;1312;75106;-23
2021/11/26 09:01:15;;;;;;;7.50;4.50;;;;;;;4.40;63.31;97983.01;101966;1316;75145;-22
2021/11/26 09:03:45;;;;;;;10.30;6.90;;;;;;;4.42;63.21;97982.66;101926;1315;74513;-22
2021/11/26 09:06:17;;;;;;;6.90;4.80;;;;;;;4.39;63.16;97978.79;101807;1316;61221;-22
2021/11/26 09:08:46;;;;;;;9.60;5.40;;;;;;;4.41;63.07;97971.77;101778;1315;61215;-22
2021/11/26 09:11:16;;;;;;;7.00;5.00;;;;;;;4.43;63.01;97965.43;102216;1312;75672;-23
2021/11/26 09:13:44;;;;;;;8.20;5.30;;;;;;;4.49;63.00;97962.20;102316;1317;74635;-24
2021/11/26 09:16:12;;;;;;;9.40;5.50;;;;;;;4.63;62.74;97957.13;102142;1313;74259;-23
2021/11/26 09:18:41;;;;;;;11.30;7.10;;;;;;;4.77;62.35;97960.17;102080;1313;61188;-23
2021/11/26 09:21:11;;;;;;;12.80;6.70;;;;;;;4.98;62.30;97956.36;101936;1313;61090;-23
2021/11/26 09:23:41;;;;;;;15.50;8.60;;;;;;;5.24;61.30;97957.00;102039;1312;75639;-23
2021/11/26 09:26:09;;;;;;;9.00;5.90;;;;;;;5.46;60.86;97957.20;101926;1314;73629;-23
2021/11/26 09:28:38;;;;;;;11.20;6.50;;;;;;;5.69;60.29;97955.45;102330;1312;72288;-23
2021/11/26 09:31:07;;;;;;;12.80;7.60;;;;;;;5.91;59.85;97950.77;102279;1313;61148;-22
2021/11/26 09:33:35;;;;;;;8.80;4.90;;;;;;;6.05;59.09;97935.58;102276;1315;62078;-22
2021/11/26 09:36:08;;;;;;;10.90;7.20;;;;;;;6.01;58.37;97934.15;102256;1312;75421;-23
2021/11/26 09:38:37;;;;;;;6.40;3.70;;;;;;;5.96;58.77;97934.22;101909;1312;76471;-23
2021/11/26 09:41:07;;;;;;;11.50;7.40;;;;;;;5.85;59.17;97933.31;102116;1313;74454;-23
2021/11/26 09:44:00;;;;;;;9.40;5.30;;;;;;;5.77;59.43;97928.64;101901;1313;61199;-22
2021/11/26 09:46:33;;;;;;;6.90;4.20;;;;;;;5.79;59.52;97921.55;101764;1320;62152;-23
2021/11/26 09:49:01;;;;;;;11.80;7.10;;;;;;;5.88;59.11;97927.29;102222;1316;73709;-23
2021/11/26 09:51:30;;;;;;;6.60;4.70;;;;;;;6.06;58.91;97932.21;101986;1315;75251;-23
2021/11/26 09:53:59;;;;;;;9.50;6.80;;;;;;;6.23;58.34;97931.85;102332;1316;72611;-23
2021/11/26 09:56:28;;;;;;;7.70;4.90;;;;;;;6.29;57.47;97913.16;102174;1312;61173;-23
2021/11/26 09:58:58;;;;;;;10.00;5.30;;;;;;;6.18;57.64;97909.02;102149;1312;61202;-23
2021/11/26 10:01:28;;;;;;;8.30;5.20;;;;;;;6.08;58.18;97904.80;101729;1315;72631;-23
2021/11/26 10:03:56;;;;;;;11.90;7.00;;;;;;;5.95;58.25;97899.94;102089;1314;76171;-22
2021/11/26 10:06:26;;;;;;;12.50;6.40;;;;;;;5.86;58.84;97894.48;101930;1314;74306;-23
2021/11/26 10:08:58;;;;;;;13.70;7.30;;;;;;;5.99;58.65;97890.58;101980;1314;61192;-23
2021/11/26 10:11:29;;;;;;;8.80;6.10;;;;;;;5.92;58.93;97888.53;101977;1315;61189;-23
2021/11/26 10:13:57;;;;;;;11.90;5.40;;;;;;;6.08;58.74;97888.43;101828;1314;75596;-23
2021/11/26 10:16:52;;;;;;;6.30;3.80;;;;;;;6.19;58.10;97890.84;101898;1312;306014;-23
2021/11/26 10:19:30;;;;;;;10.10;6.70;;;;;;;6.11;57.98;97887.72;101910;1313;73705;-22
2021/11/26 10:21:58;;;;;;;16.50;6.50;;;;;;;6.19;58.18;97889.52;101954;1314;61541;-23
2021/11/26 10:24:27;;;;;;;13.80;6.10;;;;;;;6.33;58.33;97892.52;102046;1312;61299;-23
2021/11/26 10:26:56;;;;;;;8.20;6.20;;;;;;;6.37;58.26;97891.23;102118;1313;75828;-23
2021/11/26 10:29:30;;;;;;;11.20;6.30;;;;;;;6.54;57.93;97887.84;101725;1316;74503;-23
2021/11/26 10:32:07;;;;;;;12.20;6.70;;;;;;;6.57;57.88;97879.50;101668;1315;71733;-23
2021/11/26 10:34:37;;;;;;;9.40;6.00;;;;;;;6.53;57.67;97866.35;101906;1313;61126;-23
2021/11/26 10:37:17;;;;;;;9.50;6.60;;;;;;;6.47;58.13;97862.70;101821;1313;62113;-23
2021/11/26 10:39:45;;;;;;;7.20;4.90;;;;;;;6.49;58.53;97860.45;101970;1317;74477;-23
2021/11/26 10:42:27;;;;;;;12.10;7.70;;;;;;;6.55;58.53;97859.08;102092;1312;76042;-22
2021/11/26 10:45:00;;;;;;;13.60;6.80;;;;;;;6.67;57.57;97858.58;102263;1313;73483;-23
2021/11/26 10:58:41;;;;;;;7.20;4.40;;;;;;;6.81;56.33;97821.42;102213;1315;74473;-23
2021/11/26 11:01:13;;;;;;;7.60;5.10;;;;;;;6.72;56.75;97823.05;102276;1313;62144;-22
2021/11/26 11:03:44;;;;;;;10.70;6.20;;;;;;;6.61;57.16;97822.77;102301;1312;61193;-23
2021/11/26 11:06:24;;;;;;;6.60;4.20;;;;;;;6.58;57.34;97828.73;101956;1316;75655;-24
2021/11/26 11:09:07;;;;;;;11.50;4.80;;;;;;;6.52;57.51;97830.02;102208;1313;76605;-23
2021/11/26 11:11:36;;;;;;;7.60;4.60;;;;;;;6.49;57.94;97828.23;101780;1315;74560;-23
2021/11/26 11:14:15;;;;;;;7.10;4.20;;;;;;;6.53;58.24;97826.20;101882;1314;61177;-23
2021/11/26 11:17:02;;;;;;;5.60;3.90;;;;;;;6.52;58.31;97823.32;101736;1315;61250;-23
2021/11/26 11:19:31;;;;;;;7.70;4.50;;;;;;;6.54;58.62;97822.09;101702;1314;75676;-23
2021/11/26 11:21:59;;;;;;;9.10;4.90;;;;;;;6.56;58.54;97820.89;102028;1316;76169;-22
2021/11/26 11:24:28;;;;;;;8.10;5.00;;;;;;;6.59;58.68;97813.30;102088;1313;73442;-22
2021/11/26 11:26:57;;;;;;;7.60;4.40;;;;;;;6.65;58.20;97810.70;102266;1311;61213;-23
2021/11/26 11:29:26;;;;;;;10.90;7.00;;;;;;;6.58;58.33;97813.65;101959;1317;61188;-23
2021/11/26 11:31:57;;;;;;;7.60;4.40;;;;;;;6.60;58.79;97813.17;102178;1313;73871;-23
2021/11/26 11:34:27;;;;;;;7.00;4.50;;;;;;;6.73;58.70;97811.88;101909;1315;76123;-22
2021/11/26 11:36:58;;;;;;;8.30;4.90;;;;;;;6.85;58.57;97807.58;101760;1312;73498;-23
2021/11/26 11:39:27;;;;;;;10.40;6.40;;;;;;;6.87;58.54;97806.76;102245;1314;61219;-22
2021/11/26 11:41:58;;;;;;;6.90;4.20;;;;;;;6.92;58.50;97799.75;102246;1312;61215;-23
2021/11/26 11:44:35;;;;;;;9.80;4.80;;;;;;;6.90;58.12;97791.65;101943;1314;75580;-23
2021/11/26 11:47:20;;;;;;;10.30;4.20;;;;;;;6.77;58.17;97784.18;101876;1316;75922;-22
2021/11/26 11:49:49;;;;;;;7.90;5.50;;;;;;;6.79;58.73;97776.73;102173;1314;74372;-23
2021/11/26 11:52:17;;;;;;;7.70;4.80;;;;;;;6.91;58.09;97771.02;102266;1313;61227;-23
2021/11/26 11:55:00;;;;;;;10.40;6.30;;;;;;;6.79;58.61;97773.41;102097;1313;61182;-22
2021/11/26 11:57:29;;;;;;;7.20;4.60;;;;;;;6.84;58.68;97769.03;102169;1312;75545;-23